sensor_id;sensor_type;location;lat;lon;timestamp;temperature;humidity
18721;DHT22;9489;50.948;3.114;2023-07-22T00:02:05;16.80;18.50
18721;DHT22;9489;50.948;3.114;2023-07-22T00:04:31;16.80;24.40
18721;DHT22;9489;50.948;3.114;2023-07-22T00:06:56;16.80;31.10
18721;DHT22;9489;50.948;3.114;2023-07-22T00:09:22;16.80;33.80
18721;DHT22;9489;50.948;3.114;2023-07-22T00:11:50;16.80;31.20
18721;DHT22;9489;50.948;3.114;2023-07-22T00:14:16;16.80;37.20
18721;DHT22;9489;50.948;3.114;2023-07-22T00:16:41;16.80;35.40
18721;DHT22;9489;50.948;3.114;2023-07-22T00:19:07;16.80;39.40
18721;DHT22;9489;50.948;3.114;2023-07-22T00:21:33;16.80;41.90
18721;DHT22;9489;50.948;3.114;2023-07-22T00:24:00;16.80;46.00
18721;DHT22;9489;50.948;3.114;2023-07-22T00:26:26;16.80;50.10
18721;DHT22;9489;50.948;3.114;2023-07-22T00:28:51;16.80;46.40
18721;DHT22;9489;50.948;3.114;2023-07-22T00:31:17;16.80;50.60
18721;DHT22;9489;50.948;3.114;2023-07-22T00:33:42;16.80;51.40
18721;DHT22;9489;50.948;3.114;2023-07-22T00:36:08;16.80;54.20
18721;DHT22;9489;50.948;3.114;2023-07-22T00:38:34;16.80;56.40
18721;DHT22;9489;50.948;3.114;2023-07-22T00:40:59;16.80;63.50
18721;DHT22;9489;50.948;3.114;2023-07-22T00:43:25;16.90;60.40
18721;DHT22;9489;50.948;3.114;2023-07-22T00:45:53;16.90;56.60
18721;DHT22;9489;50.948;3.114;2023-07-22T00:48:19;16.90;63.70
18721;DHT22;9489;50.948;3.114;2023-07-22T00:50:45;16.90;67.00
18721;DHT22;9489;50.948;3.114;2023-07-22T00:53:11;16.90;62.00
18721;DHT22;9489;50.948;3.114;2023-07-22T00:55:39;16.90;59.60
18721;DHT22;9489;50.948;3.114;2023-07-22T00:58:06;16.90;67.70
18721;DHT22;9489;50.948;3.114;2023-07-22T01:00:32;16.90;67.90
18721;DHT22;9489;50.948;3.114;2023-07-22T01:02:58;16.80;78.10
18721;DHT22;9489;50.948;3.114;2023-07-22T01:05:25;16.70;82.00
18721;DHT22;9489;50.948;3.114;2023-07-22T01:07:52;16.70;92.50
18721;DHT22;9489;50.948;3.114;2023-07-22T01:10:18;16.60;93.30
18721;DHT22;9489;50.948;3.114;2023-07-22T01:12:44;16.60;96.00
18721;DHT22;9489;50.948;3.114;2023-07-22T01:15:10;16.50;99.90
18721;DHT22;9489;50.948;3.114;2023-07-22T01:17:37;16.40;99.90
18721;DHT22;9489;50.948;3.114;2023-07-22T01:20:04;16.40;99.90
18721;DHT22;9489;50.948;3.114;2023-07-22T01:22:31;16.30;99.90
18721;DHT22;9489;50.948;3.114;2023-07-22T01:24:57;16.20;99.90
18721;DHT22;9489;50.948;3.114;2023-07-22T01:27:23;16.20;99.90
18721;DHT22;9489;50.948;3.114;2023-07-22T01:29:53;16.20;99.90
18721;DHT22;9489;50.948;3.114;2023-07-22T01:32:19;16.20;99.90
18721;DHT22;9489;50.948;3.114;2023-07-22T01:34:45;16.20;99.90
18721;DHT22;9489;50.948;3.114;2023-07-22T01:37:11;16.10;99.90
18721;DHT22;9489;50.948;3.114;2023-07-22T01:39:37;16.10;99.90
18721;DHT22;9489;50.948;3.114;2023-07-22T01:42:03;16.00;99.90
18721;DHT22;9489;50.948;3.114;2023-07-22T01:44:29;15.90;99.90
18721;DHT22;9489;50.948;3.114;2023-07-22T01:46:55;15.90;99.90
18721;DHT22;9489;50.948;3.114;2023-07-22T01:49:21;15.90;99.90
18721;DHT22;9489;50.948;3.114;2023-07-22T01:51:46;15.80;99.90
18721;DHT22;9489;50.948;3.114;2023-07-22T01:54:12;15.80;99.90
18721;DHT22;9489;50.948;3.114;2023-07-22T01:56:38;15.70;99.90
18721;DHT22;9489;50.948;3.114;2023-07-22T01:59:05;15.70;99.90
18721;DHT22;9489;50.948;3.114;2023-07-22T02:01:31;15.60;99.90
18721;DHT22;9489;50.948;3.114;2023-07-22T02:03:57;15.60;99.90
18721;DHT22;9489;50.948;3.114;2023-07-22T02:06:23;15.50;99.90
18721;DHT22;9489;50.948;3.114;2023-07-22T02:08:49;15.60;99.90
18721;DHT22;9489;50.948;3.114;2023-07-22T02:11:16;15.50;99.90
18721;DHT22;9489;50.948;3.114;2023-07-22T02:13:41;15.40;99.90
18721;DHT22;9489;50.948;3.114;2023-07-22T02:16:08;15.30;99.90
18721;DHT22;9489;50.948;3.114;2023-07-22T02:18:37;15.30;99.90
18721;DHT22;9489;50.948;3.114;2023-07-22T02:21:02;15.20;99.90
18721;DHT22;9489;50.948;3.114;2023-07-22T02:23:28;15.20;99.90
18721;DHT22;9489;50.948;3.114;2023-07-22T02:25:54;15.10;99.90
18721;DHT22;9489;50.948;3.114;2023-07-22T02:28:21;15.00;99.90
18721;DHT22;9489;50.948;3.114;2023-07-22T02:30:51;14.90;99.90
18721;DHT22;9489;50.948;3.114;2023-07-22T02:33:18;14.90;99.90
18721;DHT22;9489;50.948;3.114;2023-07-22T02:35:45;14.80;99.90
18721;DHT22;9489;50.948;3.114;2023-07-22T02:38:10;14.80;99.90
18721;DHT22;9489;50.948;3.114;2023-07-22T02:40:39;14.80;99.90
18721;DHT22;9489;50.948;3.114;2023-07-22T02:43:05;14.80;99.90
18721;DHT22;9489;50.948;3.114;2023-07-22T02:45:32;14.70;99.90
18721;DHT22;9489;50.948;3.114;2023-07-22T02:47:58;14.70;99.90
18721;DHT22;9489;50.948;3.114;2023-07-22T02:50:23;14.70;99.90
18721;DHT22;9489;50.948;3.114;2023-07-22T02:52:49;14.70;99.90
18721;DHT22;9489;50.948;3.114;2023-07-22T02:55:17;14.70;99.90
18721;DHT22;9489;50.948;3.114;2023-07-22T02:57:44;14.70;99.90
18721;DHT22;9489;50.948;3.114;2023-07-22T03:00:12;14.70;99.90
18721;DHT22;9489;50.948;3.114;2023-07-22T03:02:39;14.70;99.90
18721;DHT22;9489;50.948;3.114;2023-07-22T03:05:06;14.70;99.90
18721;DHT22;9489;50.948;3.114;2023-07-22T03:07:42;14.70;99.90
18721;DHT22;9489;50.948;3.114;2023-07-22T03:10:08;14.70;99.90
18721;DHT22;9489;50.948;3.114;2023-07-22T03:12:35;14.70;99.90
18721;DHT22;9489;50.948;3.114;2023-07-22T03:15:00;14.60;99.90
18721;DHT22;9489;50.948;3.114;2023-07-22T03:17:26;14.60;99.90
18721;DHT22;9489;50.948;3.114;2023-07-22T03:19:52;14.60;99.90
18721;DHT22;9489;50.948;3.114;2023-07-22T03:22:18;14.60;99.90
18721;DHT22;9489;50.948;3.114;2023-07-22T03:24:47;14.60;99.90
18721;DHT22;9489;50.948;3.114;2023-07-22T03:27:13;14.60;99.90
18721;DHT22;9489;50.948;3.114;2023-07-22T03:29:40;14.60;99.90
18721;DHT22;9489;50.948;3.114;2023-07-22T03:32:06;14.60;99.90
18721;DHT22;9489;50.948;3.114;2023-07-22T03:34:32;14.50;99.90
18721;DHT22;9489;50.948;3.114;2023-07-22T03:36:58;14.50;99.90
18721;DHT22;9489;50.948;3.114;2023-07-22T03:39:24;14.50;99.90
18721;DHT22;9489;50.948;3.114;2023-07-22T03:41:49;14.50;99.90
18721;DHT22;9489;50.948;3.114;2023-07-22T03:44:15;14.40;99.90
18721;DHT22;9489;50.948;3.114;2023-07-22T03:46:41;14.40;99.90
18721;DHT22;9489;50.948;3.114;2023-07-22T03:49:06;14.40;99.90
18721;DHT22;9489;50.948;3.114;2023-07-22T03:51:33;14.30;99.90
18721;DHT22;9489;50.948;3.114;2023-07-22T03:53:59;14.30;99.90
18721;DHT22;9489;50.948;3.114;2023-07-22T03:56:24;14.30;99.90
18721;DHT22;9489;50.948;3.114;2023-07-22T03:58:51;14.30;99.90
18721;DHT22;9489;50.948;3.114;2023-07-22T04:01:16;14.20;99.90
18721;DHT22;9489;50.948;3.114;2023-07-22T04:03:42;14.20;99.90
18721;DHT22;9489;50.948;3.114;2023-07-22T04:06:08;14.20;99.90
18721;DHT22;9489;50.948;3.114;2023-07-22T04:08:33;14.20;99.90
18721;DHT22;9489;50.948;3.114;2023-07-22T04:10:59;14.20;99.90
18721;DHT22;9489;50.948;3.114;2023-07-22T04:13:26;14.20;99.90
18721;DHT22;9489;50.948;3.114;2023-07-22T04:15:52;14.20;99.90
18721;DHT22;9489;50.948;3.114;2023-07-22T04:18:19;14.20;99.90
18721;DHT22;9489;50.948;3.114;2023-07-22T04:20:45;14.20;99.90
18721;DHT22;9489;50.948;3.114;2023-07-22T04:23:11;14.20;99.90
18721;DHT22;9489;50.948;3.114;2023-07-22T04:25:43;14.20;99.90
18721;DHT22;9489;50.948;3.114;2023-07-22T04:28:10;14.20;99.90
18721;DHT22;9489;50.948;3.114;2023-07-22T04:30:36;14.20;99.90
18721;DHT22;9489;50.948;3.114;2023-07-22T04:33:03;14.20;99.90
18721;DHT22;9489;50.948;3.114;2023-07-22T04:35:33;14.20;99.90
18721;DHT22;9489;50.948;3.114;2023-07-22T04:37:59;14.20;99.90
18721;DHT22;9489;50.948;3.114;2023-07-22T04:40:25;14.20;99.90
18721;DHT22;9489;50.948;3.114;2023-07-22T04:42:51;14.20;99.90
18721;DHT22;9489;50.948;3.114;2023-07-22T04:45:17;14.30;99.90
18721;DHT22;9489;50.948;3.114;2023-07-22T04:47:43;14.30;99.90
18721;DHT22;9489;50.948;3.114;2023-07-22T04:50:12;14.30;99.90
18721;DHT22;9489;50.948;3.114;2023-07-22T04:52:38;14.20;99.90
18721;DHT22;9489;50.948;3.114;2023-07-22T04:55:04;14.30;99.90
18721;DHT22;9489;50.948;3.114;2023-07-22T04:57:38;14.30;99.90
18721;DHT22;9489;50.948;3.114;2023-07-22T05:00:04;14.30;99.90
18721;DHT22;9489;50.948;3.114;2023-07-22T05:02:31;14.40;99.90
18721;DHT22;9489;50.948;3.114;2023-07-22T05:04:57;14.40;99.90
18721;DHT22;9489;50.948;3.114;2023-07-22T05:07:22;14.40;99.90
18721;DHT22;9489;50.948;3.114;2023-07-22T05:09:48;14.50;99.90
18721;DHT22;9489;50.948;3.114;2023-07-22T05:12:14;14.50;99.90
18721;DHT22;9489;50.948;3.114;2023-07-22T05:14:39;14.60;99.90
18721;DHT22;9489;50.948;3.114;2023-07-22T05:17:05;14.60;99.90
18721;DHT22;9489;50.948;3.114;2023-07-22T05:19:31;14.70;99.90
18721;DHT22;9489;50.948;3.114;2023-07-22T05:21:56;14.70;99.90
18721;DHT22;9489;50.948;3.114;2023-07-22T05:24:22;14.80;99.90
18721;DHT22;9489;50.948;3.114;2023-07-22T05:26:48;14.90;99.90
18721;DHT22;9489;50.948;3.114;2023-07-22T05:29:14;14.90;99.90
18721;DHT22;9489;50.948;3.114;2023-07-22T05:31:40;14.90;99.90
18721;DHT22;9489;50.948;3.114;2023-07-22T05:34:06;15.00;99.90
18721;DHT22;9489;50.948;3.114;2023-07-22T05:36:31;15.10;99.90
18721;DHT22;9489;50.948;3.114;2023-07-22T05:38:57;15.20;99.90
18721;DHT22;9489;50.948;3.114;2023-07-22T05:41:23;15.20;99.90
18721;DHT22;9489;50.948;3.114;2023-07-22T05:43:48;15.20;99.90
18721;DHT22;9489;50.948;3.114;2023-07-22T05:46:14;15.20;99.90
18721;DHT22;9489;50.948;3.114;2023-07-22T05:48:40;15.30;99.90
18721;DHT22;9489;50.948;3.114;2023-07-22T05:51:05;15.40;99.90
18721;DHT22;9489;50.948;3.114;2023-07-22T05:53:32;15.50;99.90
18721;DHT22;9489;50.948;3.114;2023-07-22T05:55:58;15.50;99.90
18721;DHT22;9489;50.948;3.114;2023-07-22T05:58:24;15.60;99.90
18721;DHT22;9489;50.948;3.114;2023-07-22T06:00:50;15.70;99.90
18721;DHT22;9489;50.948;3.114;2023-07-22T06:03:17;15.80;99.90
18721;DHT22;9489;50.948;3.114;2023-07-22T06:05:43;15.90;99.90
18721;DHT22;9489;50.948;3.114;2023-07-22T06:08:08;16.00;99.90
18721;DHT22;9489;50.948;3.114;2023-07-22T06:10:34;16.10;99.90
18721;DHT22;9489;50.948;3.114;2023-07-22T06:13:03;16.10;99.90
18721;DHT22;9489;50.948;3.114;2023-07-22T06:15:29;16.10;99.90
18721;DHT22;9489;50.948;3.114;2023-07-22T06:17:54;16.20;99.90
18721;DHT22;9489;50.948;3.114;2023-07-22T06:20:20;16.30;99.90
18721;DHT22;9489;50.948;3.114;2023-07-22T06:22:45;16.30;99.90
18721;DHT22;9489;50.948;3.114;2023-07-22T06:25:11;16.30;99.90
18721;DHT22;9489;50.948;3.114;2023-07-22T06:27:38;16.10;99.90
18721;DHT22;9489;50.948;3.114;2023-07-22T06:30:04;16.10;99.90
18721;DHT22;9489;50.948;3.114;2023-07-22T06:32:29;16.10;99.90
18721;DHT22;9489;50.948;3.114;2023-07-22T06:34:56;16.10;99.90
18721;DHT22;9489;50.948;3.114;2023-07-22T06:37:23;16.10;99.90
18721;DHT22;9489;50.948;3.114;2023-07-22T06:39:49;16.20;99.90
18721;DHT22;9489;50.948;3.114;2023-07-22T06:42:15;16.30;99.90
18721;DHT22;9489;50.948;3.114;2023-07-22T06:44:40;16.40;99.90
18721;DHT22;9489;50.948;3.114;2023-07-22T06:47:06;16.40;99.90
18721;DHT22;9489;50.948;3.114;2023-07-22T06:49:32;16.50;99.90
18721;DHT22;9489;50.948;3.114;2023-07-22T06:51:58;16.70;99.90
18721;DHT22;9489;50.948;3.114;2023-07-22T06:54:23;16.90;99.90
18721;DHT22;9489;50.948;3.114;2023-07-22T06:56:49;17.00;99.90
18721;DHT22;9489;50.948;3.114;2023-07-22T06:59:14;17.10;99.90
18721;DHT22;9489;50.948;3.114;2023-07-22T07:01:40;17.30;99.90
18721;DHT22;9489;50.948;3.114;2023-07-22T07:04:06;17.30;99.90
18721;DHT22;9489;50.948;3.114;2023-07-22T07:06:32;17.40;99.90
18721;DHT22;9489;50.948;3.114;2023-07-22T07:09:00;17.50;99.90
18721;DHT22;9489;50.948;3.114;2023-07-22T07:11:27;17.70;99.90
18721;DHT22;9489;50.948;3.114;2023-07-22T07:13:53;17.80;99.90
18721;DHT22;9489;50.948;3.114;2023-07-22T07:16:29;17.80;99.90
18721;DHT22;9489;50.948;3.114;2023-07-22T07:18:57;18.00;99.90
18721;DHT22;9489;50.948;3.114;2023-07-22T07:21:23;18.00;99.90
18721;DHT22;9489;50.948;3.114;2023-07-22T07:23:49;18.20;99.90
18721;DHT22;9489;50.948;3.114;2023-07-22T07:26:15;18.50;99.90
18721;DHT22;9489;50.948;3.114;2023-07-22T07:28:41;18.60;98.20
18721;DHT22;9489;50.948;3.114;2023-07-22T07:31:07;18.60;86.60
18721;DHT22;9489;50.948;3.114;2023-07-22T07:33:33;18.60;74.10
18721;DHT22;9489;50.948;3.114;2023-07-22T07:35:59;18.70;69.40
18721;DHT22;9489;50.948;3.114;2023-07-22T07:38:25;18.80;55.90
18721;DHT22;9489;50.948;3.114;2023-07-22T07:40:56;18.90;45.70
18721;DHT22;9489;50.948;3.114;2023-07-22T07:43:22;19.30;14.20
18721;DHT22;9489;50.948;3.114;2023-07-22T07:45:48;19.60;1.00
18721;DHT22;9489;50.948;3.114;2023-07-22T07:48:14;20.10;1.00
18721;DHT22;9489;50.948;3.114;2023-07-22T07:50:39;20.40;1.00
18721;DHT22;9489;50.948;3.114;2023-07-22T07:53:05;20.60;1.00
18721;DHT22;9489;50.948;3.114;2023-07-22T07:55:30;20.30;1.00
18721;DHT22;9489;50.948;3.114;2023-07-22T07:57:56;20.10;1.00
18721;DHT22;9489;50.948;3.114;2023-07-22T08:00:22;20.20;1.00
18721;DHT22;9489;50.948;3.114;2023-07-22T08:02:47;20.20;1.00
18721;DHT22;9489;50.948;3.114;2023-07-22T08:05:13;20.40;1.00
18721;DHT22;9489;50.948;3.114;2023-07-22T08:07:38;20.60;1.00
18721;DHT22;9489;50.948;3.114;2023-07-22T08:10:05;20.60;1.00
18721;DHT22;9489;50.948;3.114;2023-07-22T08:12:32;20.40;1.00
18721;DHT22;9489;50.948;3.114;2023-07-22T08:14:59;20.10;1.00
18721;DHT22;9489;50.948;3.114;2023-07-22T08:17:24;20.10;1.00
18721;DHT22;9489;50.948;3.114;2023-07-22T08:19:50;20.10;1.00
18721;DHT22;9489;50.948;3.114;2023-07-22T08:22:16;20.10;1.00
18721;DHT22;9489;50.948;3.114;2023-07-22T08:24:42;20.10;1.00
18721;DHT22;9489;50.948;3.114;2023-07-22T08:27:07;20.10;1.00
18721;DHT22;9489;50.948;3.114;2023-07-22T08:29:33;20.20;1.00
18721;DHT22;9489;50.948;3.114;2023-07-22T08:31:58;20.10;1.00
18721;DHT22;9489;50.948;3.114;2023-07-22T08:34:24;19.90;1.00
18721;DHT22;9489;50.948;3.114;2023-07-22T08:36:50;19.70;1.00
18721;DHT22;9489;50.948;3.114;2023-07-22T08:39:15;19.70;1.00
18721;DHT22;9489;50.948;3.114;2023-07-22T08:41:47;19.90;1.00
18721;DHT22;9489;50.948;3.114;2023-07-22T08:44:17;19.80;1.00
18721;DHT22;9489;50.948;3.114;2023-07-22T08:46:44;19.80;1.00
18721;DHT22;9489;50.948;3.114;2023-07-22T08:49:10;19.80;1.00
18721;DHT22;9489;50.948;3.114;2023-07-22T08:51:36;20.10;1.00
18721;DHT22;9489;50.948;3.114;2023-07-22T08:54:03;20.60;1.00
18721;DHT22;9489;50.948;3.114;2023-07-22T08:56:29;21.00;99.90
18721;DHT22;9489;50.948;3.114;2023-07-22T08:58:55;21.30;99.90
18721;DHT22;9489;50.948;3.114;2023-07-22T09:01:21;21.60;1.00
18721;DHT22;9489;50.948;3.114;2023-07-22T09:03:49;22.10;1.00
18721;DHT22;9489;50.948;3.114;2023-07-22T09:06:17;22.60;1.00
18721;DHT22;9489;50.948;3.114;2023-07-22T09:08:43;22.50;99.90
18721;DHT22;9489;50.948;3.114;2023-07-22T09:11:09;22.00;1.00
18721;DHT22;9489;50.948;3.114;2023-07-22T09:13:35;22.10;99.90
18721;DHT22;9489;50.948;3.114;2023-07-22T09:16:01;22.40;1.00
18721;DHT22;9489;50.948;3.114;2023-07-22T09:18:28;22.60;1.00
18721;DHT22;9489;50.948;3.114;2023-07-22T09:20:53;23.10;1.00
18721;DHT22;9489;50.948;3.114;2023-07-22T09:23:34;23.50;99.90
18721;DHT22;9489;50.948;3.114;2023-07-22T09:26:14;23.60;1.00
18721;DHT22;9489;50.948;3.114;2023-07-22T09:28:56;23.50;99.90
18721;DHT22;9489;50.948;3.114;2023-07-22T09:31:24;23.60;99.90
18721;DHT22;9489;50.948;3.114;2023-07-22T09:33:50;23.60;99.90
18721;DHT22;9489;50.948;3.114;2023-07-22T09:36:16;23.20;99.90
18721;DHT22;9489;50.948;3.114;2023-07-22T09:38:42;23.40;1.00
18721;DHT22;9489;50.948;3.114;2023-07-22T09:41:08;24.00;99.90
18721;DHT22;9489;50.948;3.114;2023-07-22T09:43:40;24.30;1.00
18721;DHT22;9489;50.948;3.114;2023-07-22T09:46:10;24.80;99.90
18721;DHT22;9489;50.948;3.114;2023-07-22T09:48:43;25.40;5.80
18721;DHT22;9489;50.948;3.114;2023-07-22T09:51:16;25.50;1.00
18721;DHT22;9489;50.948;3.114;2023-07-22T09:54:02;25.00;1.00
18721;DHT22;9489;50.948;3.114;2023-07-22T09:56:28;24.70;1.00
18721;DHT22;9489;50.948;3.114;2023-07-22T09:58:53;24.00;1.00
18721;DHT22;9489;50.948;3.114;2023-07-22T10:01:23;23.50;99.90
18721;DHT22;9489;50.948;3.114;2023-07-22T10:03:54;22.80;1.00
18721;DHT22;9489;50.948;3.114;2023-07-22T10:06:29;22.50;1.00
18721;DHT22;9489;50.948;3.114;2023-07-22T10:09:04;22.30;1.00
18721;DHT22;9489;50.948;3.114;2023-07-22T10:11:36;21.90;1.00
18721;DHT22;9489;50.948;3.114;2023-07-22T10:14:03;21.50;1.00
18721;DHT22;9489;50.948;3.114;2023-07-22T10:16:29;21.30;99.90
18721;DHT22;9489;50.948;3.114;2023-07-22T10:18:55;21.20;99.90
18721;DHT22;9489;50.948;3.114;2023-07-22T10:21:22;21.10;1.00
18721;DHT22;9489;50.948;3.114;2023-07-22T10:23:48;21.20;99.90
18721;DHT22;9489;50.948;3.114;2023-07-22T10:26:16;21.20;99.90
18721;DHT22;9489;50.948;3.114;2023-07-22T10:28:45;21.30;1.00
18721;DHT22;9489;50.948;3.114;2023-07-22T10:31:12;22.00;99.90
18721;DHT22;9489;50.948;3.114;2023-07-22T10:33:38;23.10;99.90
18721;DHT22;9489;50.948;3.114;2023-07-22T10:36:08;23.60;78.40
18721;DHT22;9489;50.948;3.114;2023-07-22T10:38:37;23.30;1.00
18721;DHT22;9489;50.948;3.114;2023-07-22T10:41:12;22.80;20.50
18721;DHT22;9489;50.948;3.114;2023-07-22T10:43:39;22.30;1.00
18721;DHT22;9489;50.948;3.114;2023-07-22T10:46:12;21.90;99.90
18721;DHT22;9489;50.948;3.114;2023-07-22T10:48:41;21.40;99.90
18721;DHT22;9489;50.948;3.114;2023-07-22T10:51:10;21.00;1.00
18721;DHT22;9489;50.948;3.114;2023-07-22T10:53:46;20.40;99.90
18721;DHT22;9489;50.948;3.114;2023-07-22T10:56:15;20.10;99.90
18721;DHT22;9489;50.948;3.114;2023-07-22T11:04:23;19.30;1.00
18721;DHT22;9489;50.948;3.114;2023-07-22T11:07:00;19.20;1.00
18721;DHT22;9489;50.948;3.114;2023-07-22T11:14:28;19.30;1.00
18721;DHT22;9489;50.948;3.114;2023-07-22T11:16:56;19.40;99.90
18721;DHT22;9489;50.948;3.114;2023-07-22T11:19:23;19.50;99.90
18721;DHT22;9489;50.948;3.114;2023-07-22T11:21:53;19.60;33.10
18721;DHT22;9489;50.948;3.114;2023-07-22T11:24:19;19.60;50.10
18721;DHT22;9489;50.948;3.114;2023-07-22T11:26:46;19.80;98.30
18721;DHT22;9489;50.948;3.114;2023-07-22T11:29:12;20.00;1.00
18721;DHT22;9489;50.948;3.114;2023-07-22T11:31:41;20.20;1.00
18721;DHT22;9489;50.948;3.114;2023-07-22T11:34:08;20.40;99.90
18721;DHT22;9489;50.948;3.114;2023-07-22T11:36:34;20.60;1.00
18721;DHT22;9489;50.948;3.114;2023-07-22T11:39:09;20.80;99.90
18721;DHT22;9489;50.948;3.114;2023-07-22T11:41:35;21.50;1.00
18721;DHT22;9489;50.948;3.114;2023-07-22T11:44:03;22.80;99.90
18721;DHT22;9489;50.948;3.114;2023-07-22T11:49:41;23.00;1.00
18721;DHT22;9489;50.948;3.114;2023-07-22T11:52:08;22.10;99.90
18721;DHT22;9489;50.948;3.114;2023-07-22T11:54:41;21.50;1.00
18721;DHT22;9489;50.948;3.114;2023-07-22T11:57:16;21.10;1.00
18721;DHT22;9489;50.948;3.114;2023-07-22T11:59:47;21.00;1.00
18721;DHT22;9489;50.948;3.114;2023-07-22T12:02:20;21.00;1.00
18721;DHT22;9489;50.948;3.114;2023-07-22T12:04:53;21.20;1.00
18721;DHT22;9489;50.948;3.114;2023-07-22T12:09:56;23.00;1.00
18721;DHT22;9489;50.948;3.114;2023-07-22T12:12:41;23.50;99.90
18721;DHT22;9489;50.948;3.114;2023-07-22T12:15:21;23.90;1.00
18721;DHT22;9489;50.948;3.114;2023-07-22T12:18:02;23.80;1.00
18721;DHT22;9489;50.948;3.114;2023-07-22T12:20:31;23.40;1.00
18721;DHT22;9489;50.948;3.114;2023-07-22T12:22:57;23.10;1.00
18721;DHT22;9489;50.948;3.114;2023-07-22T12:25:23;22.90;1.00
18721;DHT22;9489;50.948;3.114;2023-07-22T12:27:49;22.80;1.00
18721;DHT22;9489;50.948;3.114;2023-07-22T12:30:18;23.00;1.00
18721;DHT22;9489;50.948;3.114;2023-07-22T12:32:44;23.20;1.00
18721;DHT22;9489;50.948;3.114;2023-07-22T12:35:10;23.10;1.00
18721;DHT22;9489;50.948;3.114;2023-07-22T12:37:35;23.10;1.00
18721;DHT22;9489;50.948;3.114;2023-07-22T12:40:02;23.40;1.00
18721;DHT22;9489;50.948;3.114;2023-07-22T12:42:30;23.30;1.00
18721;DHT22;9489;50.948;3.114;2023-07-22T12:44:55;23.40;1.00
18721;DHT22;9489;50.948;3.114;2023-07-22T12:47:21;23.40;1.00
18721;DHT22;9489;50.948;3.114;2023-07-22T12:49:47;23.50;1.00
18721;DHT22;9489;50.948;3.114;2023-07-22T12:52:12;23.60;1.00
18721;DHT22;9489;50.948;3.114;2023-07-22T12:54:38;23.70;1.00
18721;DHT22;9489;50.948;3.114;2023-07-22T12:57:05;23.50;1.00
18721;DHT22;9489;50.948;3.114;2023-07-22T12:59:30;23.20;1.00
18721;DHT22;9489;50.948;3.114;2023-07-22T13:01:57;23.00;99.90
18721;DHT22;9489;50.948;3.114;2023-07-22T13:04:23;22.70;99.90
18721;DHT22;9489;50.948;3.114;2023-07-22T13:06:50;22.30;1.00
18721;DHT22;9489;50.948;3.114;2023-07-22T13:09:17;22.30;99.90
18721;DHT22;9489;50.948;3.114;2023-07-22T13:11:42;22.30;99.90
18721;DHT22;9489;50.948;3.114;2023-07-22T13:14:08;22.30;1.00
18721;DHT22;9489;50.948;3.114;2023-07-22T13:16:34;22.30;1.00
18721;DHT22;9489;50.948;3.114;2023-07-22T13:18:59;22.30;1.00
18721;DHT22;9489;50.948;3.114;2023-07-22T13:21:26;22.00;1.00
18721;DHT22;9489;50.948;3.114;2023-07-22T13:23:52;21.90;99.90
18721;DHT22;9489;50.948;3.114;2023-07-22T13:26:18;22.00;99.90
18721;DHT22;9489;50.948;3.114;2023-07-22T13:28:43;22.20;1.00
18721;DHT22;9489;50.948;3.114;2023-07-22T13:31:09;22.30;1.00
18721;DHT22;9489;50.948;3.114;2023-07-22T13:33:34;22.50;1.00
18721;DHT22;9489;50.948;3.114;2023-07-22T13:36:00;22.50;99.90
18721;DHT22;9489;50.948;3.114;2023-07-22T13:38:26;22.50;1.00
18721;DHT22;9489;50.948;3.114;2023-07-22T13:40:51;22.40;1.00
18721;DHT22;9489;50.948;3.114;2023-07-22T13:43:17;22.20;99.90
18721;DHT22;9489;50.948;3.114;2023-07-22T13:45:42;22.20;1.00
18721;DHT22;9489;50.948;3.114;2023-07-22T13:48:08;22.40;1.00
18721;DHT22;9489;50.948;3.114;2023-07-22T13:50:33;22.40;1.00
18721;DHT22;9489;50.948;3.114;2023-07-22T13:52:59;22.50;1.00
18721;DHT22;9489;50.948;3.114;2023-07-22T13:55:25;22.50;1.00
18721;DHT22;9489;50.948;3.114;2023-07-22T13:57:50;22.40;1.00
18721;DHT22;9489;50.948;3.114;2023-07-22T14:00:16;22.30;1.00
18721;DHT22;9489;50.948;3.114;2023-07-22T14:02:42;22.10;99.90
18721;DHT22;9489;50.948;3.114;2023-07-22T14:05:08;22.00;99.90
18721;DHT22;9489;50.948;3.114;2023-07-22T14:07:35;21.80;1.00
18721;DHT22;9489;50.948;3.114;2023-07-22T14:10:01;21.60;1.00
18721;DHT22;9489;50.948;3.114;2023-07-22T14:12:26;21.40;1.00
18721;DHT22;9489;50.948;3.114;2023-07-22T14:14:52;21.00;1.00
18721;DHT22;9489;50.948;3.114;2023-07-22T14:17:17;20.60;1.00
18721;DHT22;9489;50.948;3.114;2023-07-22T14:19:43;20.10;1.00
18721;DHT22;9489;50.948;3.114;2023-07-22T14:22:08;19.80;1.00
18721;DHT22;9489;50.948;3.114;2023-07-22T14:24:34;19.60;1.00
18721;DHT22;9489;50.948;3.114;2023-07-22T14:27:00;19.60;99.90
18721;DHT22;9489;50.948;3.114;2023-07-22T14:29:25;19.50;99.90
18721;DHT22;9489;50.948;3.114;2023-07-22T14:31:51;19.60;99.90
18721;DHT22;9489;50.948;3.114;2023-07-22T14:34:17;19.80;98.60
18721;DHT22;9489;50.948;3.114;2023-07-22T14:36:43;20.10;1.00
18721;DHT22;9489;50.948;3.114;2023-07-22T14:39:09;20.50;1.00
18721;DHT22;9489;50.948;3.114;2023-07-22T14:41:35;20.80;1.00
18721;DHT22;9489;50.948;3.114;2023-07-22T14:44:01;20.90;21.10
18721;DHT22;9489;50.948;3.114;2023-07-22T14:46:26;20.90;1.00
18721;DHT22;9489;50.948;3.114;2023-07-22T14:48:52;20.90;1.00
18721;DHT22;9489;50.948;3.114;2023-07-22T14:51:17;20.90;99.90
18721;DHT22;9489;50.948;3.114;2023-07-22T14:53:43;21.10;1.00
18721;DHT22;9489;50.948;3.114;2023-07-22T14:56:09;21.10;1.00
18721;DHT22;9489;50.948;3.114;2023-07-22T14:58:34;21.10;1.00
18721;DHT22;9489;50.948;3.114;2023-07-22T15:01:00;21.10;1.00
18721;DHT22;9489;50.948;3.114;2023-07-22T15:03:26;21.20;99.90
18721;DHT22;9489;50.948;3.114;2023-07-22T15:05:52;21.20;1.00
18721;DHT22;9489;50.948;3.114;2023-07-22T15:08:18;21.10;99.90
18721;DHT22;9489;50.948;3.114;2023-07-22T15:10:43;21.00;1.00
18721;DHT22;9489;50.948;3.114;2023-07-22T15:13:09;21.00;1.00
18721;DHT22;9489;50.948;3.114;2023-07-22T15:15:34;21.00;99.90
18721;DHT22;9489;50.948;3.114;2023-07-22T15:18:00;21.10;1.00
18721;DHT22;9489;50.948;3.114;2023-07-22T15:20:26;21.20;99.90
18721;DHT22;9489;50.948;3.114;2023-07-22T15:22:52;21.20;1.00
18721;DHT22;9489;50.948;3.114;2023-07-22T15:25:17;21.30;1.00
18721;DHT22;9489;50.948;3.114;2023-07-22T15:27:43;21.30;1.00
18721;DHT22;9489;50.948;3.114;2023-07-22T15:30:09;21.10;1.00
18721;DHT22;9489;50.948;3.114;2023-07-22T15:32:35;21.00;99.90
18721;DHT22;9489;50.948;3.114;2023-07-22T15:35:01;21.00;1.00
18721;DHT22;9489;50.948;3.114;2023-07-22T15:37:27;21.10;1.00
18721;DHT22;9489;50.948;3.114;2023-07-22T15:39:53;21.10;1.00
18721;DHT22;9489;50.948;3.114;2023-07-22T15:42:18;21.20;1.00
18721;DHT22;9489;50.948;3.114;2023-07-22T15:44:44;21.10;99.90
18721;DHT22;9489;50.948;3.114;2023-07-22T15:47:09;21.10;1.00
18721;DHT22;9489;50.948;3.114;2023-07-22T15:49:35;21.10;99.90
18721;DHT22;9489;50.948;3.114;2023-07-22T15:52:01;21.20;1.00
18721;DHT22;9489;50.948;3.114;2023-07-22T15:54:27;21.20;1.00
18721;DHT22;9489;50.948;3.114;2023-07-22T15:56:52;21.20;1.00
18721;DHT22;9489;50.948;3.114;2023-07-22T15:59:18;21.20;1.00
18721;DHT22;9489;50.948;3.114;2023-07-22T16:01:43;21.10;94.90
18721;DHT22;9489;50.948;3.114;2023-07-22T16:04:09;21.00;1.00
18721;DHT22;9489;50.948;3.114;2023-07-22T16:06:34;20.90;89.60